KDPL

Details ICAO KDPL
Name DUPLIN CO
Region United States
Timezone America/New_York (UTC-5.0)
Plans Departing 0
Arriving 1
Stats Elevation 137 ft / 42 m (AMSL)
Location 35.000062° -77.981695°
Runways 1
Magnetic Variation 9.518° W
Sunrise 2017-12-16 12:14:44 UTC / 2017-12-16 07:14:44 Local
Sunset 2017-12-16 22:03:22 UTC / 2017-12-16 17:03:22 Local
Advertisement - Login to hide

Runways

ID Width Length Bearing (true) Bearing (mag) Surface Threshold Offset Overrun Length
05 75 ft / 23 m 6,008 ft / 1,831 m 36.22° 45.74° Asphalt 0 ft / 0 m 0 ft / 0 m
23 75 ft / 23 m 6,008 ft / 1,831 m 216.23° 225.75° Asphalt 0 ft / 0 m 0 ft / 0 m

Map

Weather


0- 5 10 15 20 25 30 35+ Temperature / ° C

Clouds and Precipitation
Forecast for 2017-12-16 12:00 UTC. Updated 4 minutes ago

Ground ~20,000 ft ~40,000 ft Winds

METAR

KDPL 161105Z AUTO 00000KT 3SM BR CLR M03/M05 A3022 RMK AO2

TAF

Not found

Frequencies

Recorded 120.67 MHz AWOS 3
Approach 119.70 MHz SEYMOUR JOHNSON APP
Unicom 123.00 MHz CTAF/UNICOM
Warning: Do not use this data for real-world aviation or navigation. No guarantee of current accuracy is given.